Time;durP1;ratioP1;P1;durP2;ratioP2;P2;SDS_P1;SDS_P2;PMS_P1;PMS_P2;Temp;Humidity;BMP_temperature;BMP_pressure;BME280_temperature;BME280_humidity;BME280_pressure;Samples;Min_cycle;Max_cycle;Signal;HPM_P1;HPM_P2
2023/08/28 00:00:47;;;;;;;2.78;1.80;;;12.20;99.90;;;;;;4983958;28;20042;-78
2023/08/28 00:03:12;;;;;;;5.10;1.80;;;12.30;99.90;;;;;;4986853;28;20125;-79
2023/08/28 00:05:38;;;;;;;3.65;1.80;;;12.30;99.90;;;;;;4977470;28;20050;-78
2023/08/28 00:08:05;;;;;;;4.40;1.65;;;12.30;99.90;;;;;;5001935;28;20062;-78
2023/08/28 00:10:31;;;;;;;4.65;1.70;;;12.30;99.90;;;;;;4979021;28;20125;-78
2023/08/28 00:12:56;;;;;;;2.92;1.65;;;12.30;99.90;;;;;;4986448;28;20042;-78
2023/08/28 00:15:22;;;;;;;3.35;1.73;;;12.30;99.90;;;;;;4986085;28;20489;-78
2023/08/28 00:17:48;;;;;;;4.25;1.70;;;12.30;99.90;;;;;;4969748;28;20042;-77
2023/08/28 00:20:16;;;;;;;5.32;1.50;;;12.30;99.90;;;;;;5002152;28;20062;-79
2023/08/28 00:22:42;;;;;;;6.75;1.60;;;12.30;99.90;;;;;;4977913;28;20050;-78
2023/08/28 00:25:08;;;;;;;6.60;1.52;;;12.20;99.90;;;;;;4969641;28;20393;-78
2023/08/28 00:27:34;;;;;;;2.67;1.40;;;12.20;99.90;;;;;;4986137;28;20461;-78
2023/08/28 00:30:00;;;;;;;5.35;1.65;;;12.20;99.90;;;;;;4986118;28;20133;-77
2023/08/28 00:32:26;;;;;;;4.03;1.42;;;12.20;99.90;;;;;;4985944;28;20042;-76
2023/08/28 00:34:53;;;;;;;2.00;1.35;;;12.10;99.90;;;;;;4989762;28;20042;-78
2023/08/28 00:37:18;;;;;;;4.18;1.70;;;12.10;99.90;;;;;;4970660;28;20121;-77
2023/08/28 00:39:44;;;;;;;3.20;1.95;;;12.10;99.90;;;;;;4973835;28;20042;-78
2023/08/28 00:42:10;;;;;;;2.65;1.83;;;12.10;99.90;;;;;;4984832;28;20171;-77
2023/08/28 00:44:35;;;;;;;5.88;2.40;;;12.10;99.90;;;;;;4982861;28;20046;-77
2023/08/28 00:47:02;;;;;;;3.50;2.25;;;12.10;99.90;;;;;;4991627;28;20086;-78
2023/08/28 00:49:29;;;;;;;6.72;2.30;;;12.10;99.90;;;;;;4968735;28;20045;-77
2023/08/28 00:51:56;;;;;;;4.82;2.10;;;12.00;99.90;;;;;;4986562;28;20489;-78
2023/08/28 00:54:21;;;;;;;4.38;2.20;;;12.00;99.90;;;;;;5009474;28;20061;-77
2023/08/28 00:56:48;;;;;;;4.47;2.08;;;12.00;99.90;;;;;;4982881;28;20069;-77
2023/08/28 00:59:15;;;;;;;4.18;2.25;;;11.90;99.90;;;;;;4968794;28;20374;-78
2023/08/28 01:01:41;;;;;;;5.45;2.78;;;11.90;99.90;;;;;;4968342;28;20378;-77
2023/08/28 01:04:07;;;;;;;4.18;2.28;;;11.80;99.90;;;;;;4973772;28;20509;-77
2023/08/28 01:06:54;;;;;;;4.88;2.22;;;11.90;99.90;;;;;;4979153;28;20046;-77
2023/08/28 01:09:34;;;;;;;4.22;2.10;;;11.80;99.90;;;;;;4985548;28;20046;-77
2023/08/28 01:12:19;;;;;;;6.25;2.30;;;11.80;99.90;;;;;;4984730;28;20038;-77
2023/08/28 01:14:57;;;;;;;6.82;2.40;;;11.80;99.90;;;;;;4984547;28;20502;-77
2023/08/28 01:17:24;;;;;;;6.63;2.45;;;11.70;99.90;;;;;;4986653;28;20042;-77
2023/08/28 01:19:52;;;;;;;5.45;2.50;;;11.60;99.90;;;;;;4979787;28;20053;-76
2023/08/28 01:22:44;;;;;;;4.43;2.03;;;11.60;99.90;;;;;;4989005;28;20053;-77
2023/08/28 01:25:12;;;;;;;3.50;2.20;;;11.60;99.90;;;;;;5000538;28;20449;-77
2023/08/28 01:27:41;;;;;;;4.93;2.20;;;11.50;99.90;;;;;;4989701;28;20048;-77
2023/08/28 01:30:11;;;;;;;4.50;2.63;;;11.50;99.90;;;;;;4980089;28;20140;-75
2023/08/28 01:32:38;;;;;;;7.50;2.08;;;11.30;99.90;;;;;;4974683;28;20046;-76
2023/08/28 01:35:10;;;;;;;7.57;2.25;;;11.30;99.90;;;;;;5000267;28;20584;-77
2023/08/28 01:38:19;;;;;;;4.88;2.20;;;11.30;99.90;;;;;;4989510;28;20046;-77
2023/08/28 01:41:06;;;;;;;3.05;2.42;;;11.30;99.90;;;;;;4968890;28;20508;-77
2023/08/28 01:43:37;;;;;;;3.42;2.10;;;11.30;99.90;;;;;;4983702;28;20038;-77
2023/08/28 01:46:03;;;;;;;3.25;1.98;;;11.20;99.90;;;;;;4984668;28;20042;-78
2023/08/28 01:48:29;;;;;;;3.70;2.15;;;11.20;99.90;;;;;;4984556;28;20034;-77
2023/08/28 01:50:55;;;;;;;4.28;2.35;;;11.20;99.90;;;;;;4982871;28;20121;-77
2023/08/28 01:53:22;;;;;;;5.82;2.63;;;11.10;99.90;;;;;;4985083;28;20042;-77
2023/08/28 01:56:14;;;;;;;3.90;2.53;;;11.10;99.90;;;;;;5001335;28;20050;-77
2023/08/28 01:58:45;;;;;;;4.13;2.40;;;11.10;99.90;;;;;;4982908;28;20042;-77
2023/08/28 02:01:11;;;;;;;5.05;2.45;;;11.00;99.90;;;;;;4968056;28;20058;-77
2023/08/28 02:03:41;;;;;;;3.53;2.25;;;11.00;99.90;;;;;;4984475;28;20253;-77
2023/08/28 02:06:07;;;;;;;5.10;2.40;;;11.00;99.90;;;;;;4983547;28;20096;-77
2023/08/28 02:08:33;;;;;;;4.97;3.05;;;10.90;99.90;;;;;;4984158;28;20039;-77
2023/08/28 02:10:58;;;;;;;3.63;2.45;;;10.90;99.90;;;;;;4967024;28;20042;-77
2023/08/28 02:13:25;;;;;;;4.82;2.75;;;11.00;99.90;;;;;;4983844;28;20054;-77
2023/08/28 02:15:51;;;;;;;5.88;2.70;;;11.00;99.90;;;;;;4982655;28;20121;-78
2023/08/28 02:18:16;;;;;;;6.03;2.33;;;11.10;99.90;;;;;;4983866;28;20133;-78
2023/08/28 02:20:43;;;;;;;3.90;2.80;;;11.10;99.90;;;;;;4966485;28;20494;-78
2023/08/28 02:23:09;;;;;;;3.83;2.35;;;11.10;99.90;;;;;;5001558;28;20043;-77
2023/08/28 02:25:35;;;;;;;5.07;2.90;;;11.10;99.90;;;;;;4972951;28;20417;-78
2023/08/28 02:28:00;;;;;;;5.68;3.38;;;11.10;99.90;;;;;;4980136;28;20039;-77
2023/08/28 02:30:26;;;;;;;5.35;2.88;;;11.10;99.90;;;;;;4983878;28;20101;-77
2023/08/28 02:32:51;;;;;;;4.30;2.92;;;11.10;99.90;;;;;;4981960;28;20472;-77
2023/08/28 02:35:17;;;;;;;6.65;2.88;;;11.10;99.90;;;;;;4983945;28;20046;-77
2023/08/28 02:37:43;;;;;;;6.22;3.10;;;11.20;99.90;;;;;;4994526;28;20038;-77
2023/08/28 02:40:09;;;;;;;5.68;3.10;;;11.20;99.90;;;;;;4964922;28;20045;-77
2023/08/28 02:42:35;;;;;;;5.63;3.30;;;11.20;99.90;;;;;;4985947;28;20045;-77
2023/08/28 02:45:01;;;;;;;4.47;3.45;;;11.30;99.90;;;;;;4986497;28;20031;-77
2023/08/28 02:47:27;;;;;;;5.20;3.33;;;11.30;99.90;;;;;;4988806;28;20073;-77
2023/08/28 02:49:53;;;;;;;6.25;3.35;;;11.30;99.90;;;;;;4972227;28;20070;-76
2023/08/28 02:52:18;;;;;;;5.40;3.50;;;11.30;99.90;;;;;;4988193;28;20046;-77
2023/08/28 02:54:44;;;;;;;9.80;4.25;;;11.20;99.90;;;;;;4988081;28;20467;-77
2023/08/28 02:57:10;;;;;;;5.28;3.38;;;11.10;99.90;;;;;;4990423;28;20085;-77
2023/08/28 02:59:35;;;;;;;6.80;3.53;;;11.10;99.90;;;;;;4984012;28;20031;-77
2023/08/28 03:02:01;;;;;;;5.07;3.85;;;11.10;99.90;;;;;;4985729;28;20085;-77
2023/08/28 03:04:26;;;;;;;6.00;3.95;;;11.10;99.90;;;;;;4982677;28;20153;-77
2023/08/28 03:06:52;;;;;;;7.05;3.72;;;11.10;99.90;;;;;;4988495;28;20042;-77
2023/08/28 03:09:18;;;;;;;6.55;3.90;;;11.10;99.90;;;;;;4972047;28;20042;-77
2023/08/28 03:11:43;;;;;;;6.25;4.15;;;11.10;99.90;;;;;;5004684;28;20038;-77
2023/08/28 03:14:09;;;;;;;6.00;3.92;;;11.00;99.90;;;;;;4987393;28;20034;-77
2023/08/28 03:16:35;;;;;;;8.25;4.70;;;11.00;99.90;;;;;;4968870;28;20146;-77
2023/08/28 03:19:00;;;;;;;6.88;4.28;;;11.00;99.90;;;;;;4971894;28;20121;-76
2023/08/28 03:21:26;;;;;;;8.80;4.70;;;11.00;99.90;;;;;;4973863;28;20110;-77
2023/08/28 03:23:52;;;;;;;7.65;4.50;;;10.90;99.90;;;;;;4986274;28;20524;-77
2023/08/28 03:26:18;;;;;;;7.55;4.43;;;10.90;99.90;;;;;;4987061;28;20035;-76
2023/08/28 03:28:43;;;;;;;12.10;4.88;;;10.90;99.90;;;;;;4971124;28;20034;-77
2023/08/28 03:31:09;;;;;;;7.63;4.47;;;10.90;99.90;;;;;;4998692;28;20398;-77
2023/08/28 03:33:38;;;;;;;8.27;5.63;;;11.00;99.90;;;;;;4999150;28;20101;-76
2023/08/28 03:36:05;;;;;;;8.88;5.35;;;10.90;99.90;;;;;;4980789;28;20501;-77
2023/08/28 03:38:30;;;;;;;10.85;5.38;;;10.90;99.90;;;;;;4986218;28;20078;-77
2023/08/28 03:40:56;;;;;;;7.85;4.88;;;10.90;99.90;;;;;;4985700;28;20152;-78
2023/08/28 03:43:22;;;;;;;8.43;5.25;;;10.90;99.90;;;;;;4986423;28;20038;-78
2023/08/28 03:45:47;;;;;;;9.65;5.25;;;10.80;99.90;;;;;;5000135;28;20069;-77
2023/08/28 03:48:13;;;;;;;8.82;4.80;;;10.80;99.90;;;;;;5001193;28;20082;-77
2023/08/28 03:50:38;;;;;;;9.05;5.28;;;10.80;99.90;;;;;;4984300;28;20031;-77
2023/08/28 03:53:04;;;;;;;9.05;5.57;;;10.80;99.90;;;;;;5003127;28;20034;-77
2023/08/28 03:55:30;;;;;;;10.45;5.72;;;10.80;99.90;;;;;;4999185;28;20038;-77
2023/08/28 03:57:57;;;;;;;9.55;5.68;;;10.80;99.90;;;;;;4982669;28;20429;-77
2023/08/28 04:00:23;;;;;;;7.85;5.43;;;10.70;99.90;;;;;;4986240;28;20576;-77
2023/08/28 04:02:50;;;;;;;8.25;5.70;;;10.70;99.90;;;;;;4983159;28;20042;-77
2023/08/28 04:05:18;;;;;;;9.23;6.10;;;10.70;99.90;;;;;;4985512;28;20669;-77
2023/08/28 04:07:44;;;;;;;10.90;5.50;;;10.70;99.90;;;;;;4985904;28;20031;-77
2023/08/28 04:10:11;;;;;;;8.88;5.82;;;10.80;99.90;;;;;;4985969;28;20492;-76
2023/08/28 04:12:37;;;;;;;9.52;5.68;;;10.70;99.90;;;;;;4987374;28;20052;-77
2023/08/28 04:15:03;;;;;;;10.82;6.35;;;10.70;99.90;;;;;;4968456;28;20456;-77
2023/08/28 04:17:29;;;;;;;9.70;5.65;;;10.80;99.90;;;;;;4977251;28;20049;-77
2023/08/28 04:19:55;;;;;;;10.50;5.95;;;10.80;99.90;;;;;;4974789;28;20100;-76
2023/08/28 04:22:21;;;;;;;9.27;6.00;;;10.70;99.90;;;;;;4983935;28;20050;-76
2023/08/28 04:24:49;;;;;;;11.50;6.38;;;10.80;99.90;;;;;;4966858;28;20418;-77
2023/08/28 04:27:15;;;;;;;16.38;5.45;;;10.70;99.90;;;;;;4984720;28;20490;-77
2023/08/28 04:29:41;;;;;;;10.32;5.47;;;10.70;99.90;;;;;;4992773;28;20054;-76
2023/08/28 04:32:07;;;;;;;8.43;4.78;;;10.70;99.90;;;;;;4986012;28;20045;-77
2023/08/28 04:34:32;;;;;;;8.63;5.50;;;10.80;99.90;;;;;;4968108;28;20037;-77
2023/08/28 04:36:58;;;;;;;8.88;6.30;;;10.80;99.90;;;;;;4986670;28;20162;-77
2023/08/28 04:39:24;;;;;;;10.45;6.03;;;10.90;99.90;;;;;;4985407;28;20042;-77
2023/08/28 04:41:52;;;;;;;8.98;5.90;;;10.90;99.90;;;;;;4985511;28;20038;-77
2023/08/28 04:44:18;;;;;;;10.55;5.65;;;10.90;99.90;;;;;;5000704;28;20038;-77
2023/08/28 04:46:46;;;;;;;9.52;5.40;;;10.80;99.90;;;;;;4984803;28;20042;-77
2023/08/28 04:49:11;;;;;;;11.40;6.90;;;10.80;99.90;;;;;;4970321;28;20045;-77
2023/08/28 04:51:37;;;;;;;9.40;4.90;;;10.70;99.90;;;;;;4985697;28;20038;-77
2023/08/28 04:54:03;;;;;;;9.15;6.10;;;10.70;99.90;;;;;;4985037;28;20038;-77
2023/08/28 04:56:28;;;;;;;8.90;6.10;;;10.60;99.90;;;;;;4984755;28;20679;-77
2023/08/28 04:58:54;;;;;;;8.20;5.70;;;10.60;99.90;;;;;;4985876;28;20038;-77
2023/08/28 05:01:20;;;;;;;9.93;6.00;;;10.60;99.90;;;;;;4980546;28;20117;-77
2023/08/28 05:03:45;;;;;;;10.80;6.10;;;10.60;99.90;;;;;;5000290;28;20121;-77
2023/08/28 05:06:11;;;;;;;10.80;5.55;;;10.50;99.90;;;;;;5004010;28;20116;-76
2023/08/28 05:08:37;;;;;;;7.90;5.38;;;10.60;99.90;;;;;;4978017;28;20043;-75
2023/08/28 05:11:04;;;;;;;10.05;6.25;;;10.50;99.90;;;;;;4996614;28;20056;-76
2023/08/28 05:13:30;;;;;;;9.20;5.75;;;10.50;99.90;;;;;;4982558;28;20113;-76
2023/08/28 05:15:55;;;;;;;8.85;5.75;;;10.60;99.90;;;;;;4981973;28;20493;-76
2023/08/28 05:18:22;;;;;;;8.38;5.70;;;10.60;99.90;;;;;;4986287;28;20093;-76
2023/08/28 05:20:47;;;;;;;8.45;5.53;;;10.70;99.90;;;;;;5001132;28;20069;-77
2023/08/28 05:23:13;;;;;;;9.18;5.70;;;10.70;99.90;;;;;;4984958;28;20050;-76
2023/08/28 05:25:39;;;;;;;10.40;5.85;;;10.80;99.90;;;;;;4985437;28;20119;-76
2023/08/28 05:28:05;;;;;;;8.27;5.50;;;10.80;99.90;;;;;;5001340;28;20041;-76
2023/08/28 05:30:31;;;;;;;9.57;5.82;;;10.90;99.90;;;;;;5000008;28;20091;-76
2023/08/28 05:32:56;;;;;;;10.48;5.57;;;11.00;99.90;;;;;;4967308;28;20047;-76
2023/08/28 05:35:22;;;;;;;9.70;5.75;;;11.10;99.90;;;;;;5001266;28;20125;-76
2023/08/28 05:37:50;;;;;;;12.73;5.90;;;11.20;99.90;;;;;;4978153;28;20042;-76
2023/08/28 05:40:16;;;;;;;9.05;5.55;;;11.30;99.90;;;;;;4984606;28;20077;-76
2023/08/28 05:42:43;;;;;;;9.32;5.97;;;11.40;99.90;;;;;;4973913;28;20145;-76
2023/08/28 05:45:09;;;;;;;12.25;6.20;;;11.50;99.90;;;;;;4998837;28;20057;-76
2023/08/28 05:47:36;;;;;;;7.88;5.47;;;11.60;99.90;;;;;;4962756;28;20115;-76
2023/08/28 05:50:03;;;;;;;8.88;5.28;;;11.70;99.90;;;;;;4984523;28;20731;-76
2023/08/28 05:52:29;;;;;;;7.18;5.18;;;11.80;99.90;;;;;;4983509;28;20452;-76
2023/08/28 05:54:54;;;;;;;10.93;5.35;;;11.90;99.90;;;;;;4979627;28;20707;-77
2023/08/28 05:57:21;;;;;;;8.05;5.00;;;12.00;99.90;;;;;;4982793;28;20042;-76
2023/08/28 05:59:46;;;;;;;9.40;5.30;;;12.10;99.90;;;;;;4983759;28;20118;-76
2023/08/28 06:02:13;;;;;;;7.25;5.30;;;12.20;99.90;;;;;;4981120;28;20054;-76
2023/08/28 06:04:39;;;;;;;7.13;4.65;;;12.30;99.90;;;;;;4979152;28;20049;-76
2023/08/28 06:07:04;;;;;;;7.35;5.30;;;12.50;99.90;;;;;;4971000;28;20050;-75
2023/08/28 06:09:31;;;;;;;9.07;5.15;;;12.50;99.90;;;;;;5001765;28;20241;-76
2023/08/28 06:11:57;;;;;;;7.28;4.72;;;12.70;99.90;;;;;;4969744;28;20125;-76
2023/08/28 06:14:22;;;;;;;6.65;4.72;;;12.70;99.90;;;;;;4999658;28;20113;-76
2023/08/28 06:16:48;;;;;;;5.90;4.20;;;12.80;99.90;;;;;;4984339;28;20057;-76
2023/08/28 06:19:13;;;;;;;5.13;4.22;;;12.90;99.90;;;;;;4988384;28;20050;-76
2023/08/28 06:21:43;;;;;;;6.28;4.82;;;13.00;99.90;;;;;;4988980;28;20045;-76
2023/08/28 06:24:09;;;;;;;7.25;3.78;;;13.00;99.90;;;;;;4976042;28;20043;-76
2023/08/28 06:26:34;;;;;;;7.57;3.95;;;13.10;99.90;;;;;;5002758;28;20039;-76
2023/08/28 06:29:00;;;;;;;4.38;3.42;;;13.10;99.90;;;;;;4988134;28;20046;-76
2023/08/28 06:31:26;;;;;;;5.05;3.95;;;13.10;99.90;;;;;;4981956;28;20097;-76
2023/08/28 06:33:51;;;;;;;4.93;3.72;;;13.10;99.90;;;;;;4983412;28;20073;-76
2023/08/28 06:36:17;;;;;;;7.35;3.80;;;13.10;99.90;;;;;;4999381;28;20137;-77
2023/08/28 06:38:42;;;;;;;7.22;4.30;;;13.10;99.90;;;;;;4986684;28;20046;-76
2023/08/28 06:41:08;;;;;;;4.82;3.72;;;13.20;99.90;;;;;;5004432;28;20037;-76
2023/08/28 06:43:34;;;;;;;8.20;3.97;;;13.20;99.90;;;;;;4985573;28;20057;-76
2023/08/28 06:45:59;;;;;;;5.72;4.00;;;13.20;99.90;;;;;;5002470;28;20134;-75
2023/08/28 06:48:25;;;;;;;4.75;3.50;;;13.30;99.90;;;;;;4968329;28;20137;-76
2023/08/28 06:50:51;;;;;;;5.45;3.75;;;13.20;99.90;;;;;;4977386;28;20060;-76
2023/08/28 06:53:17;;;;;;;4.80;3.83;;;13.30;99.90;;;;;;4987809;28;20045;-76
2023/08/28 06:55:43;;;;;;;5.75;3.95;;;13.40;99.90;;;;;;4986561;28;20045;-74
2023/08/28 06:58:08;;;;;;;6.07;4.05;;;13.40;99.90;;;;;;4988175;28;20074;-77
2023/08/28 07:00:34;;;;;;;5.65;4.38;;;13.40;99.90;;;;;;4986816;28;20105;-77
2023/08/28 07:02:59;;;;;;;6.63;3.28;;;13.50;99.90;;;;;;4989390;28;20516;-77
2023/08/28 07:05:25;;;;;;;4.72;3.80;;;13.60;99.90;;;;;;4986084;28;20504;-77
2023/08/28 07:07:51;;;;;;;5.40;3.22;;;13.60;99.90;;;;;;5004157;28;20042;-77
2023/08/28 07:10:16;;;;;;;4.53;3.58;;;13.70;99.90;;;;;;5003216;28;20034;-76
2023/08/28 07:12:42;;;;;;;5.82;3.63;;;13.80;99.90;;;;;;4990175;28;20042;-77
2023/08/28 07:15:13;;;;;;;5.20;3.55;;;13.80;99.90;;;;;;4975634;28;20044;-77
2023/08/28 07:17:39;;;;;;;6.70;3.60;;;13.80;99.90;;;;;;4985789;28;20093;-77
2023/08/28 07:20:06;;;;;;;5.05;4.07;;;13.90;99.90;;;;;;4962915;28;20041;-74
2023/08/28 07:22:31;;;;;;;4.60;3.40;;;14.00;99.90;;;;;;4986200;28;20264;-75
2023/08/28 07:24:57;;;;;;;7.13;3.65;;;14.10;99.90;;;;;;4988283;28;20038;-75
2023/08/28 07:27:23;;;;;;;4.72;3.67;;;14.20;99.90;;;;;;4973087;28;20034;-75
2023/08/28 07:29:48;;;;;;;4.47;3.28;;;14.30;99.90;;;;;;4964423;28;20078;-75
2023/08/28 07:32:14;;;;;;;8.20;4.18;;;14.30;99.90;;;;;;4988791;28;20146;-76
2023/08/28 07:34:40;;;;;;;4.50;3.20;;;14.50;99.90;;;;;;4985788;28;20066;-75
2023/08/28 07:37:05;;;;;;;5.32;3.33;;;14.50;99.90;;;;;;4975136;28;20089;-74
2023/08/28 07:39:31;;;;;;;5.15;3.20;;;14.60;99.90;;;;;;4982804;28;20475;-75
2023/08/28 07:41:57;;;;;;;4.43;3.10;;;14.70;99.90;;;;;;4984165;28;20133;-75
2023/08/28 07:44:23;;;;;;;4.70;3.28;;;14.70;99.90;;;;;;4994411;28;20096;-74
2023/08/28 07:46:49;;;;;;;5.13;2.88;;;14.80;99.90;;;;;;4970278;28;20042;-74
2023/08/28 07:49:14;;;;;;;4.88;2.55;;;14.90;99.90;;;;;;4973820;28;20451;-75
2023/08/28 07:51:40;;;;;;;5.88;2.67;;;15.00;99.90;;;;;;4977079;28;20035;-74
2023/08/28 07:54:06;;;;;;;5.55;2.90;;;15.00;99.90;;;;;;4985101;28;20377;-75
2023/08/28 07:56:31;;;;;;;4.97;2.50;;;15.10;99.90;;;;;;4986592;28;20096;-73
2023/08/28 07:58:57;;;;;;;5.22;2.50;;;15.20;99.90;;;;;;4987165;28;20093;-75
2023/08/28 08:01:23;;;;;;;4.13;2.58;;;15.30;99.90;;;;;;4982781;28;20038;-75
2023/08/28 08:03:49;;;;;;;3.40;1.90;;;15.40;99.90;;;;;;4985962;28;20038;-75
2023/08/28 08:06:16;;;;;;;2.72;2.17;;;15.50;99.90;;;;;;4985549;28;20501;-75
2023/08/28 08:08:45;;;;;;;2.45;1.77;;;15.50;99.90;;;;;;4972432;28;20038;-75
2023/08/28 08:11:11;;;;;;;2.17;1.58;;;15.60;99.90;;;;;;4989308;28;20065;-75
2023/08/28 08:13:37;;;;;;;1.98;1.58;;;15.70;99.90;;;;;;4983456;28;20116;-75
2023/08/28 08:16:04;;;;;;;2.70;1.67;;;15.80;99.90;;;;;;5002508;28;20164;-75
2023/08/28 08:18:30;;;;;;;3.75;1.42;;;15.90;99.90;;;;;;4998482;28;20108;-75
2023/08/28 08:20:56;;;;;;;2.38;1.20;;;16.00;99.90;;;;;;4979611;28;20054;-75
2023/08/28 08:23:22;;;;;;;3.30;1.30;;;16.10;99.90;;;;;;4986057;28;20042;-75
2023/08/28 08:25:48;;;;;;;6.72;1.33;;;16.20;99.90;;;;;;5003029;28;20508;-75
2023/08/28 08:28:15;;;;;;;1.48;1.08;;;16.30;99.90;;;;;;4998325;28;20099;-75
2023/08/28 08:30:41;;;;;;;2.05;1.05;;;16.40;99.90;;;;;;4984042;28;20185;-75
2023/08/28 08:33:07;;;;;;;1.55;1.00;;;16.50;99.90;;;;;;4994305;28;20038;-75
2023/08/28 08:35:34;;;;;;;1.88;0.82;;;16.60;99.90;;;;;;4982754;28;20037;-75
2023/08/28 08:38:00;;;;;;;3.03;0.82;;;16.80;99.90;;;;;;4989194;28;20122;-75
2023/08/28 08:40:26;;;;;;;2.60;0.60;;;17.10;99.90;;;;;;4996170;28;20041;-75
2023/08/28 08:42:54;;;;;;;0.80;0.63;;;17.40;99.90;;;;;;4986421;28;20681;-75
2023/08/28 08:45:28;;;;;;;2.17;1.00;;;17.70;99.90;;;;;;4986804;28;20409;-76
2023/08/28 08:48:00;;;;;;;2.03;0.68;;;18.10;99.90;;;;;;4966317;28;20047;-76
2023/08/28 08:50:27;;;;;;;2.80;0.70;;;18.40;99.90;;;;;;5002362;28;20321;-76
2023/08/28 08:53:01;;;;;;;1.20;0.60;;;18.40;99.90;;;;;;4983940;28;20628;-76
2023/08/28 08:55:53;;;;;;;2.00;0.40;;;18.40;99.90;;;;;;4978988;28;20042;-75
2023/08/28 08:58:20;;;;;;;3.17;0.50;;;18.60;99.90;;;;;;4986800;28;20160;-76
2023/08/28 09:00:47;;;;;;;2.88;0.70;;;18.70;99.90;;;;;;4981463;28;20042;-75
2023/08/28 09:03:14;;;;;;;2.35;0.73;;;18.70;99.90;;;;;;4986615;28;20072;-76
2023/08/28 09:05:41;;;;;;;3.22;1.13;;;18.80;99.90;;;;;;4990067;28;20046;-76
2023/08/28 09:08:07;;;;;;;4.75;0.70;;;18.80;87.40;;;;;;4982822;28;20034;-76
2023/08/28 09:10:33;;;;;;;1.65;0.47;;;18.90;93.20;;;;;;4966143;28;20030;-75
2023/08/28 09:13:00;;;;;;;0.57;0.40;;;19.40;99.90;;;;;;4969602;28;20034;-76
2023/08/28 09:15:25;;;;;;;3.22;0.57;;;19.60;99.90;;;;;;4983443;28;20046;-76
2023/08/28 09:17:52;;;;;;;1.17;0.30;;;19.50;90.70;;;;;;4982329;28;20042;-76
2023/08/28 09:20:20;;;;;;;2.25;0.40;;;19.30;1.00;;;;;;4983296;28;20050;-76
2023/08/28 09:22:53;;;;;;;0.50;0.38;;;19.20;41.00;;;;;;4985008;28;20042;-75
2023/08/28 09:25:21;;;;;;;0.90;0.47;;;19.90;1.00;;;;;;4983847;28;20042;-75
2023/08/28 09:27:53;;;;;;;1.30;0.50;;;21.20;44.70;;;;;;4984268;28;20757;-75
2023/08/28 09:30:35;;;;;;;1.08;0.50;;;22.50;1.00;;;;;;4981349;28;20058;-75
2023/08/28 09:33:06;;;;;;;1.20;0.35;;;23.60;99.90;;;;;;4999043;28;20092;-75
2023/08/28 09:35:42;;;;;;;2.25;0.47;;;24.40;99.90;;;;;;4984693;28;20555;-75
2023/08/28 09:38:09;;;;;;;1.27;0.40;;;25.00;10.80;;;;;;4984506;28;20030;-74
2023/08/28 09:40:40;;;;;;;1.50;0.43;;;25.40;99.90;;;;;;4984049;28;20500;-75
2023/08/28 09:43:12;;;;;;;0.95;0.40;;;26.00;99.90;;;;;;4968337;28;20034;-75
2023/08/28 09:45:39;;;;;;;2.90;0.90;;;26.60;1.00;;;;;;4999120;28;21921;-75
2023/08/28 09:48:05;;;;;;;0.90;0.28;;;26.30;1.00;;;;;;4982948;28;20030;-75
2023/08/28 09:50:33;;;;;;;2.20;0.35;;;26.70;1.00;;;;;;4980134;28;20093;-76
2023/08/28 09:53:13;;;;;;;0.80;0.40;;;26.90;99.90;;;;;;4988947;28;20500;-75
2023/08/28 09:55:52;;;;;;;0.38;0.30;;;26.60;83.30;;;;;;4986291;28;20042;-75
2023/08/28 09:58:25;;;;;;;2.10;0.38;;;27.10;1.00;;;;;;4985562;28;20042;-75
2023/08/28 10:00:52;;;;;;;1.65;0.40;;;28.20;27.20;;;;;;4987313;28;20050;-76
2023/08/28 10:03:20;;;;;;;0.70;0.40;;;27.80;1.00;;;;;;4982818;28;20168;-76
2023/08/28 10:05:47;;;;;;;1.02;0.38;;;26.50;1.00;;;;;;4991688;28;20420;-75
2023/08/28 10:08:16;;;;;;;1.52;0.50;;;25.30;1.00;;;;;;4974462;28;20065;-78
2023/08/28 10:10:47;;;;;;;2.40;0.38;;;24.20;1.00;;;;;;4996391;28;20057;-77
2023/08/28 10:13:15;;;;;;;1.40;0.40;;;23.30;1.00;;;;;;4991194;28;20045;-77
2023/08/28 10:16:07;;;;;;;0.73;0.35;;;22.50;96.80;;;;;;4989154;28;20540;-78
2023/08/28 10:18:38;;;;;;;0.65;0.30;;;22.00;26.00;;;;;;4967360;28;20050;-77
2023/08/28 10:21:05;;;;;;;1.45;0.60;;;21.50;95.50;;;;;;4985277;28;21175;-78
2023/08/28 10:23:33;;;;;;;1.02;0.40;;;22.20;99.90;;;;;;4985085;28;20532;-78
2023/08/28 10:26:00;;;;;;;1.60;0.30;;;23.50;99.90;;;;;;4973267;28;20552;-79
2023/08/28 10:28:28;;;;;;;0.90;0.30;;;24.80;99.90;;;;;;4991204;28;20169;-78
2023/08/28 10:30:53;;;;;;;1.35;0.50;;;26.20;1.00;;;;;;4987189;28;20055;-78
2023/08/28 10:33:20;;;;;;;0.47;0.40;;;26.90;1.00;;;;;;4979838;28;20046;-78
2023/08/28 10:35:50;;;;;;;1.48;0.43;;;27.30;1.00;;;;;;4986612;28;20829;-78
2023/08/28 10:38:20;;;;;;;1.25;0.45;;;27.30;1.00;;;;;;4988007;28;20046;-77
2023/08/28 10:40:50;;;;;;;1.58;0.80;;;26.50;1.00;;;;;;4984135;28;20129;-78
2023/08/28 10:43:19;;;;;;;3.97;0.50;;;26.30;1.00;;;;;;4987521;28;20050;-77
2023/08/28 10:45:47;;;;;;;0.60;0.40;;;26.60;1.00;;;;;;4974229;28;20061;-78
2023/08/28 10:48:12;;;;;;;0.43;0.20;;;26.80;1.00;;;;;;4990227;28;20515;-78
2023/08/28 10:50:38;;;;;;;1.85;0.50;;;27.90;1.00;;;;;;4984451;28;20053;-78
2023/08/28 10:53:05;;;;;;;1.73;0.40;;;29.60;1.00;;;;;;4988624;28;20041;-78
2023/08/28 10:55:33;;;;;;;0.60;0.28;;;29.80;1.00;;;;;;4993375;28;20492;-78
2023/08/28 10:58:05;;;;;;;1.88;0.60;;;28.70;1.00;;;;;;4985468;28;20043;-78
2023/08/28 11:00:34;;;;;;;0.50;0.40;;;27.60;1.00;;;;;;5007505;28;20034;-78
2023/08/28 11:03:06;;;;;;;0.80;0.30;;;26.70;1.00;;;;;;4971564;28;20567;-79
2023/08/28 11:05:32;;;;;;;1.15;0.40;;;26.80;1.00;;;;;;4987210;28;20049;-78
2023/08/28 11:08:03;;;;;;;0.82;0.38;;;26.50;1.00;;;;;;4997960;28;20049;-78
2023/08/28 11:10:30;;;;;;;2.83;0.50;;;25.60;1.00;;;;;;5003130;28;20409;-78
2023/08/28 11:13:01;;;;;;;0.30;0.25;;;24.70;1.00;;;;;;5003132;28;20125;-78
2023/08/28 11:15:29;;;;;;;1.08;0.30;;;24.00;1.00;;;;;;5002430;28;20121;-78
2023/08/28 11:18:28;;;;;;;1.92;0.45;;;23.40;1.00;;;;;;4981129;28;20035;-77
2023/08/28 11:20:55;;;;;;;1.17;0.43;;;22.90;1.00;;;;;;4954056;28;20054;-77
2023/08/28 11:23:33;;;;;;;3.70;0.22;;;22.60;1.00;;;;;;5004000;28;20046;-78
2023/08/28 11:26:03;;;;;;;1.27;0.38;;;22.50;1.00;;;;;;4984524;28;20038;-78
2023/08/28 11:28:32;;;;;;;0.82;0.28;;;22.30;1.00;;;;;;4992895;28;20041;-77
2023/08/28 11:31:04;;;;;;;2.80;0.30;;;22.30;1.00;;;;;;4983962;28;20050;-77
2023/08/28 11:33:44;;;;;;;0.63;0.30;;;23.10;1.00;;;;;;4972023;28;20064;-78
2023/08/28 11:36:19;;;;;;;1.40;0.32;;;25.10;1.00;;;;;;4991053;28;20492;-78
2023/08/28 11:38:46;;;;;;;1.75;0.40;;;27.10;1.00;;;;;;4984537;28;20056;-78
2023/08/28 11:41:13;;;;;;;2.47;0.60;;;28.40;1.00;;;;;;4999778;28;20077;-79
2023/08/28 11:43:40;;;;;;;0.40;0.30;;;28.00;1.00;;;;;;4969691;28;20046;-79
2023/08/28 11:46:06;;;;;;;0.75;0.30;;;27.40;1.00;;;;;;4983056;28;20110;-79
2023/08/28 11:48:36;;;;;;;0.30;0.20;;;26.70;1.00;;;;;;4981446;28;20052;-79
2023/08/28 11:51:04;;;;;;;1.45;0.30;;;26.50;1.00;;;;;;4983826;28;20038;-79
2023/08/28 11:53:37;;;;;;;0.70;0.20;;;26.90;1.00;;;;;;4986596;28;20500;-79
2023/08/28 11:56:05;;;;;;;1.25;0.30;;;27.70;1.00;;;;;;4984581;28;20128;-79
2023/08/28 11:58:32;;;;;;;0.93;0.52;;;28.30;1.00;;;;;;4984566;28;20108;-79
2023/08/28 12:01:00;;;;;;;2.00;0.30;;;28.60;1.00;;;;;;4977464;28;20517;-79
2023/08/28 12:03:25;;;;;;;0.40;0.20;;;28.80;1.00;;;;;;4984013;28;20069;-79
2023/08/28 12:06:00;;;;;;;0.75;0.30;;;28.60;1.00;;;;;;4983571;28;20053;-79
2023/08/28 12:08:26;;;;;;;1.47;0.60;;;27.80;1.00;;;;;;4984129;28;20049;-79
2023/08/28 12:10:52;;;;;;;2.92;0.85;;;27.00;1.00;;;;;;4987100;28;20285;-78
2023/08/28 12:13:21;;;;;;;0.82;0.28;;;26.30;1.00;;;;;;5002354;28;20042;-79
2023/08/28 12:15:46;;;;;;;1.10;0.30;;;26.10;1.00;;;;;;4983723;28;20046;-78
2023/08/28 12:18:12;;;;;;;1.45;0.20;;;26.30;1.00;;;;;;4985439;28;20038;-78
2023/08/28 12:20:37;;;;;;;0.40;0.20;;;27.10;1.00;;;;;;4986908;28;20053;-78
2023/08/28 12:23:03;;;;;;;0.90;0.30;;;28.10;1.00;;;;;;4986608;28;20053;-79
2023/08/28 12:25:34;;;;;;;0.43;0.25;;;27.70;1.00;;;;;;4977307;28;20157;-78
2023/08/28 12:28:08;;;;;;;0.52;0.40;;;27.20;1.00;;;;;;4967716;28;20319;-79
2023/08/28 12:30:35;;;;;;;0.45;0.30;;;26.90;1.00;;;;;;4982637;28;20054;-78
2023/08/28 12:33:03;;;;;;;3.67;0.40;;;26.00;1.00;;;;;;4976141;28;20046;-78
2023/08/28 12:35:34;;;;;;;0.88;0.30;;;24.90;1.00;;;;;;4985130;28;20042;-78
2023/08/28 12:38:00;;;;;;;0.80;0.30;;;24.60;1.00;;;;;;4979032;28;20035;-79
2023/08/28 12:40:35;;;;;;;1.30;0.35;;;25.00;1.00;;;;;;4981623;28;20117;-78
2023/08/28 12:43:03;;;;;;;1.63;0.37;;;25.70;1.00;;;;;;4979026;28;20092;-78
2023/08/28 12:45:31;;;;;;;0.88;0.30;;;26.40;1.00;;;;;;4982518;28;20812;-78
2023/08/28 12:47:57;;;;;;;0.65;0.28;;;26.80;1.00;;;;;;4991981;28;20081;-78
2023/08/28 12:50:22;;;;;;;0.82;0.20;;;27.50;1.00;;;;;;4971614;28;20042;-78